Terminal Aerodrome Forecast
Issued by NWS Paducah, KY

Current Version | Previous Version | Text Only | Print | Product List | Glossary On
Versions: 1 2 3 4 5 6 7 8 9 10 11 12 13 14 15
905
FTUS43 KPAH 221855 AAB
TAFPAH
TAF AMD
KPAH 221855Z 2219/2318 VRB12G18KT 4SM TSRA BR OVC030CB
      TEMPO 2219/2220 32020G30KT 2SM +TSRA BR OVC020CB
     FM222000 32009KT P6SM SCT025 BKN150
     FM230100 31004KT P6SM BKN150
     FM231300 01007KT P6SM FEW250=

USA.gov is the U.S. government's official web portal to all federal, state and local government web resources and services.